Ana Sayfa
METAR-TAF:

METAR-TAF

Havaalanları :

Kerpe, Yunanistan

Enlem: 35-24-51N, Boylam: 027-08-54E, yükseklik: 6 m

Güncel hava durumu gözlemi

Rapor saat 22:20 UTC de 27 dakika önce yapıldı.
Rüzgar kuzeybatıdan 19 kt
Sıcaklık 13°C
Nem 47%
Basınç 1020 hPa

METAR: LGKP 202220Z AUTO 31019KT //// // ////// 13/02 Q1020 RE//

Saat: 01:47 (22:47 UTC)

Tahmin

Rapor saat 20:00 UTC de 2 saat ve 47 dakika önce yapıldı.
Ayın 20'si saat 21 UTC'den ayın 21'si saat 06 UTC'ye kadar geçerli Tahmin
Rüzgar kuzeybatıdan 25 kt ve 35 kt'a kadar ani rüzgarlar
Görüş mesafesi 10 km veya daha fazla
2500 ft yükseklikte parçalı bulutlu

TAF: LGKP 202000Z 2021/2106 31025G35KT 9999 SCT025

4.000'den fazla havaalanı için hava durumu gözlemleri ve tahminleri (METAR ve TAF raporları).

Kullanılabilir istasyonlar harita üzerinde sarı ve kırmızı noktalarla gösterilir.

İstasyonun adını görmek için fareyi noktanın üzerinde gezdirin.

Sonrasında hava gözlem ve tahminlerini görmek için tıklayın.

Haritayı değiştirmek için: yaklaştırmak için siyah artı işaretli yeşil düğmeye ve uzaklaştırmak için de eksi işaretli düğmeye hızla tıklayın; bitişik haritalar için yeşil okları kullanın.


METAR-TAF: